sensor_id;sensor_type;location;lat;lon;timestamp;P1;durP1;ratioP1;P2;durP2;ratioP2
5612;SDS011;63463;53.586;9.928;2024-03-08T00:00:40;121.80;;;12.67;;
5612;SDS011;63463;53.586;9.928;2024-03-08T00:03:08;124.17;;;12.70;;
5612;SDS011;63463;53.586;9.928;2024-03-08T00:05:35;122.17;;;12.97;;
5612;SDS011;63463;53.586;9.928;2024-03-08T00:08:01;121.37;;;12.67;;
5612;SDS011;63463;53.586;9.928;2024-03-08T00:10:27;121.50;;;13.10;;
5612;SDS011;63463;53.586;9.928;2024-03-08T00:12:56;120.07;;;12.30;;
5612;SDS011;63463;53.586;9.928;2024-03-08T00:15:22;122.20;;;13.30;;
5612;SDS011;63463;53.586;9.928;2024-03-08T00:17:48;123.17;;;13.00;;
5612;SDS011;63463;53.586;9.928;2024-03-08T00:20:15;121.63;;;12.40;;
5612;SDS011;63463;53.586;9.928;2024-03-08T00:22:44;121.17;;;13.10;;
5612;SDS011;63463;53.586;9.928;2024-03-08T00:25:11;121.80;;;12.70;;
5612;SDS011;63463;53.586;9.928;2024-03-08T00:27:37;121.50;;;12.73;;
5612;SDS011;63463;53.586;9.928;2024-03-08T00:30:03;121.20;;;12.73;;
5612;SDS011;63463;53.586;9.928;2024-03-08T00:32:30;121.83;;;12.60;;
5612;SDS011;63463;53.586;9.928;2024-03-08T00:34:57;122.50;;;13.20;;
5612;SDS011;63463;53.586;9.928;2024-03-08T00:37:24;124.67;;;13.40;;
5612;SDS011;63463;53.586;9.928;2024-03-08T00:39:51;121.73;;;12.70;;
5612;SDS011;63463;53.586;9.928;2024-03-08T00:42:17;119.87;;;12.50;;
5612;SDS011;63463;53.586;9.928;2024-03-08T00:44:44;127.43;;;13.30;;
5612;SDS011;63463;53.586;9.928;2024-03-08T00:47:10;129.50;;;13.40;;
5612;SDS011;63463;53.586;9.928;2024-03-08T00:49:37;123.67;;;13.27;;
5612;SDS011;63463;53.586;9.928;2024-03-08T00:52:07;122.50;;;13.20;;
5612;SDS011;63463;53.586;9.928;2024-03-08T00:54:36;123.50;;;14.33;;
5612;SDS011;63463;53.586;9.928;2024-03-08T00:57:02;124.70;;;13.40;;
5612;SDS011;63463;53.586;9.928;2024-03-08T00:59:30;120.17;;;13.50;;
5612;SDS011;63463;53.586;9.928;2024-03-08T01:01:59;124.00;;;14.20;;
5612;SDS011;63463;53.586;9.928;2024-03-08T01:04:25;123.27;;;13.63;;
5612;SDS011;63463;53.586;9.928;2024-03-08T01:06:54;124.37;;;13.90;;
5612;SDS011;63463;53.586;9.928;2024-03-08T01:09:21;122.90;;;13.67;;
5612;SDS011;63463;53.586;9.928;2024-03-08T01:11:47;126.00;;;13.30;;
5612;SDS011;63463;53.586;9.928;2024-03-08T01:14:14;120.47;;;13.40;;
5612;SDS011;63463;53.586;9.928;2024-03-08T01:16:40;122.27;;;13.87;;
5612;SDS011;63463;53.586;9.928;2024-03-08T01:19:06;122.27;;;13.90;;
5612;SDS011;63463;53.586;9.928;2024-03-08T01:21:32;122.23;;;13.47;;
5612;SDS011;63463;53.586;9.928;2024-03-08T01:23:59;121.37;;;13.47;;
5612;SDS011;63463;53.586;9.928;2024-03-08T01:26:25;124.60;;;13.97;;
5612;SDS011;63463;53.586;9.928;2024-03-08T01:28:51;121.27;;;13.50;;
5612;SDS011;63463;53.586;9.928;2024-03-08T01:31:18;124.90;;;14.93;;
5612;SDS011;63463;53.586;9.928;2024-03-08T01:33:44;125.93;;;14.80;;
5612;SDS011;63463;53.586;9.928;2024-03-08T01:36:10;119.87;;;13.10;;
5612;SDS011;63463;53.586;9.928;2024-03-08T01:38:40;121.80;;;14.30;;
5612;SDS011;63463;53.586;9.928;2024-03-08T01:41:06;121.90;;;14.53;;
5612;SDS011;63463;53.586;9.928;2024-03-08T01:43:32;121.33;;;13.47;;
5612;SDS011;63463;53.586;9.928;2024-03-08T01:45:58;120.60;;;13.23;;
5612;SDS011;63463;53.586;9.928;2024-03-08T01:48:24;120.37;;;13.67;;
5612;SDS011;63463;53.586;9.928;2024-03-08T01:50:51;120.97;;;13.50;;
5612;SDS011;63463;53.586;9.928;2024-03-08T01:53:17;120.07;;;12.90;;
5612;SDS011;63463;53.586;9.928;2024-03-08T01:55:46;118.50;;;12.73;;
5612;SDS011;63463;53.586;9.928;2024-03-08T01:58:13;119.13;;;12.77;;
5612;SDS011;63463;53.586;9.928;2024-03-08T02:00:46;119.73;;;13.17;;
5612;SDS011;63463;53.586;9.928;2024-03-08T02:03:14;119.17;;;13.03;;
5612;SDS011;63463;53.586;9.928;2024-03-08T02:05:41;119.57;;;12.80;;
5612;SDS011;63463;53.586;9.928;2024-03-08T02:08:08;122.07;;;13.83;;
5612;SDS011;63463;53.586;9.928;2024-03-08T02:10:38;119.13;;;12.57;;
5612;SDS011;63463;53.586;9.928;2024-03-08T02:13:04;119.80;;;13.07;;
5612;SDS011;63463;53.586;9.928;2024-03-08T02:18:15;123.00;;;14.00;;
5612;SDS011;63463;53.586;9.928;2024-03-08T02:20:42;120.00;;;12.90;;
5612;SDS011;63463;53.586;9.928;2024-03-08T02:23:08;126.70;;;14.77;;
5612;SDS011;63463;53.586;9.928;2024-03-08T02:25:35;119.90;;;12.77;;
5612;SDS011;63463;53.586;9.928;2024-03-08T02:28:01;118.43;;;11.90;;
5612;SDS011;63463;53.586;9.928;2024-03-08T02:30:27;120.80;;;13.10;;
5612;SDS011;63463;53.586;9.928;2024-03-08T02:32:54;122.00;;;13.87;;
5612;SDS011;63463;53.586;9.928;2024-03-08T02:35:20;119.70;;;13.40;;
5612;SDS011;63463;53.586;9.928;2024-03-08T02:37:47;124.67;;;14.90;;
5612;SDS011;63463;53.586;9.928;2024-03-08T02:40:13;119.27;;;13.00;;
5612;SDS011;63463;53.586;9.928;2024-03-08T02:42:41;119.47;;;12.67;;
5612;SDS011;63463;53.586;9.928;2024-03-08T02:45:08;118.90;;;12.50;;
5612;SDS011;63463;53.586;9.928;2024-03-08T02:47:37;118.77;;;13.40;;
5612;SDS011;63463;53.586;9.928;2024-03-08T02:50:03;116.77;;;12.30;;
5612;SDS011;63463;53.586;9.928;2024-03-08T02:52:29;118.90;;;13.47;;
5612;SDS011;63463;53.586;9.928;2024-03-08T02:54:56;116.13;;;12.07;;
5612;SDS011;63463;53.586;9.928;2024-03-08T02:57:22;117.87;;;12.80;;
5612;SDS011;63463;53.586;9.928;2024-03-08T02:59:48;117.47;;;12.33;;
5612;SDS011;63463;53.586;9.928;2024-03-08T03:02:17;117.67;;;12.70;;
5612;SDS011;63463;53.586;9.928;2024-03-08T03:04:44;119.87;;;13.20;;
5612;SDS011;63463;53.586;9.928;2024-03-08T03:07:10;116.87;;;13.03;;
5612;SDS011;63463;53.586;9.928;2024-03-08T03:09:37;116.50;;;12.50;;
5612;SDS011;63463;53.586;9.928;2024-03-08T03:12:03;117.00;;;12.87;;
5612;SDS011;63463;53.586;9.928;2024-03-08T03:14:29;117.17;;;13.10;;
5612;SDS011;63463;53.586;9.928;2024-03-08T03:16:55;115.90;;;13.00;;
5612;SDS011;63463;53.586;9.928;2024-03-08T03:19:22;115.80;;;12.93;;
5612;SDS011;63463;53.586;9.928;2024-03-08T03:21:48;116.17;;;12.97;;
5612;SDS011;63463;53.586;9.928;2024-03-08T03:24:15;117.57;;;13.03;;
5612;SDS011;63463;53.586;9.928;2024-03-08T03:26:41;118.10;;;13.93;;
5612;SDS011;63463;53.586;9.928;2024-03-08T03:29:08;116.13;;;13.43;;
5612;SDS011;63463;53.586;9.928;2024-03-08T03:31:35;115.93;;;13.10;;
5612;SDS011;63463;53.586;9.928;2024-03-08T03:34:02;121.93;;;12.97;;
5612;SDS011;63463;53.586;9.928;2024-03-08T03:36:32;115.47;;;12.60;;
5612;SDS011;63463;53.586;9.928;2024-03-08T03:39:00;116.90;;;12.80;;
5612;SDS011;63463;53.586;9.928;2024-03-08T03:41:37;119.33;;;14.40;;
5612;SDS011;63463;53.586;9.928;2024-03-08T03:44:05;118.17;;;13.27;;
5612;SDS011;63463;53.586;9.928;2024-03-08T03:46:32;123.10;;;14.30;;
5612;SDS011;63463;53.586;9.928;2024-03-08T03:48:58;119.00;;;13.20;;
5612;SDS011;63463;53.586;9.928;2024-03-08T03:51:24;115.27;;;12.80;;
5612;SDS011;63463;53.586;9.928;2024-03-08T03:53:51;115.67;;;13.47;;
5612;SDS011;63463;53.586;9.928;2024-03-08T03:56:18;116.33;;;13.73;;
5612;SDS011;63463;53.586;9.928;2024-03-08T03:58:44;115.10;;;13.43;;
5612;SDS011;63463;53.586;9.928;2024-03-08T04:01:10;121.97;;;15.23;;
5612;SDS011;63463;53.586;9.928;2024-03-08T04:03:36;117.00;;;12.90;;
5612;SDS011;63463;53.586;9.928;2024-03-08T04:06:04;114.20;;;13.17;;
5612;SDS011;63463;53.586;9.928;2024-03-08T04:08:30;115.47;;;13.00;;
5612;SDS011;63463;53.586;9.928;2024-03-08T04:10:59;116.10;;;13.33;;
5612;SDS011;63463;53.586;9.928;2024-03-08T04:13:26;113.27;;;12.00;;
5612;SDS011;63463;53.586;9.928;2024-03-08T04:15:53;114.10;;;12.20;;
5612;SDS011;63463;53.586;9.928;2024-03-08T04:18:19;113.43;;;12.33;;
5612;SDS011;63463;53.586;9.928;2024-03-08T04:20:45;113.37;;;12.27;;
5612;SDS011;63463;53.586;9.928;2024-03-08T04:23:13;120.27;;;15.50;;
5612;SDS011;63463;53.586;9.928;2024-03-08T04:25:39;113.60;;;12.70;;
5612;SDS011;63463;53.586;9.928;2024-03-08T04:28:07;113.17;;;12.20;;
5612;SDS011;63463;53.586;9.928;2024-03-08T04:30:35;113.10;;;12.43;;
5612;SDS011;63463;53.586;9.928;2024-03-08T04:33:02;113.00;;;12.20;;
5612;SDS011;63463;53.586;9.928;2024-03-08T04:35:28;114.37;;;13.10;;
5612;SDS011;63463;53.586;9.928;2024-03-08T04:37:55;113.23;;;12.60;;
5612;SDS011;63463;53.586;9.928;2024-03-08T04:40:23;113.20;;;12.87;;
5612;SDS011;63463;53.586;9.928;2024-03-08T04:42:49;113.50;;;12.57;;
5612;SDS011;63463;53.586;9.928;2024-03-08T04:45:15;113.27;;;12.57;;
5612;SDS011;63463;53.586;9.928;2024-03-08T04:47:42;112.40;;;12.07;;
5612;SDS011;63463;53.586;9.928;2024-03-08T04:50:08;114.00;;;12.80;;
5612;SDS011;63463;53.586;9.928;2024-03-08T04:52:36;113.17;;;12.30;;
5612;SDS011;63463;53.586;9.928;2024-03-08T04:55:02;117.37;;;13.33;;
5612;SDS011;63463;53.586;9.928;2024-03-08T04:57:31;113.10;;;11.87;;
5612;SDS011;63463;53.586;9.928;2024-03-08T04:59:57;113.30;;;11.93;;
5612;SDS011;63463;53.586;9.928;2024-03-08T05:02:25;113.80;;;12.80;;
5612;SDS011;63463;53.586;9.928;2024-03-08T05:04:54;113.77;;;12.07;;
5612;SDS011;63463;53.586;9.928;2024-03-08T05:07:20;114.10;;;11.90;;
5612;SDS011;63463;53.586;9.928;2024-03-08T05:09:46;114.77;;;12.70;;
5612;SDS011;63463;53.586;9.928;2024-03-08T05:12:17;114.57;;;12.33;;
5612;SDS011;63463;53.586;9.928;2024-03-08T05:14:43;114.70;;;12.30;;
5612;SDS011;63463;53.586;9.928;2024-03-08T05:17:11;115.50;;;13.20;;
5612;SDS011;63463;53.586;9.928;2024-03-08T05:19:37;115.90;;;13.37;;
5612;SDS011;63463;53.586;9.928;2024-03-08T05:22:03;115.37;;;12.77;;
5612;SDS011;63463;53.586;9.928;2024-03-08T05:24:31;116.47;;;14.23;;
5612;SDS011;63463;53.586;9.928;2024-03-08T05:26:58;118.50;;;14.33;;
5612;SDS011;63463;53.586;9.928;2024-03-08T05:29:25;118.40;;;15.87;;
5612;SDS011;63463;53.586;9.928;2024-03-08T05:31:52;128.83;;;14.90;;
5612;SDS011;63463;53.586;9.928;2024-03-08T05:34:18;118.73;;;15.27;;
5612;SDS011;63463;53.586;9.928;2024-03-08T05:36:47;115.90;;;13.70;;
5612;SDS011;63463;53.586;9.928;2024-03-08T05:39:14;113.97;;;12.77;;
5612;SDS011;63463;53.586;9.928;2024-03-08T05:41:41;115.23;;;13.37;;
5612;SDS011;63463;53.586;9.928;2024-03-08T05:44:09;114.87;;;12.77;;
5612;SDS011;63463;53.586;9.928;2024-03-08T05:46:35;117.20;;;12.77;;
5612;SDS011;63463;53.586;9.928;2024-03-08T05:49:01;114.30;;;12.43;;
5612;SDS011;63463;53.586;9.928;2024-03-08T05:51:34;116.87;;;13.47;;
5612;SDS011;63463;53.586;9.928;2024-03-08T05:54:05;114.60;;;13.13;;
5612;SDS011;63463;53.586;9.928;2024-03-08T05:56:31;114.90;;;13.33;;
5612;SDS011;63463;53.586;9.928;2024-03-08T05:58:57;115.60;;;13.10;;
5612;SDS011;63463;53.586;9.928;2024-03-08T06:01:24;114.83;;;13.23;;
5612;SDS011;63463;53.586;9.928;2024-03-08T06:03:51;117.13;;;13.50;;
5612;SDS011;63463;53.586;9.928;2024-03-08T06:06:19;117.40;;;13.97;;
5612;SDS011;63463;53.586;9.928;2024-03-08T06:08:51;119.97;;;13.83;;
5612;SDS011;63463;53.586;9.928;2024-03-08T06:11:18;116.40;;;13.53;;
5612;SDS011;63463;53.586;9.928;2024-03-08T06:13:45;114.77;;;13.30;;
5612;SDS011;63463;53.586;9.928;2024-03-08T06:16:11;116.50;;;14.77;;
5612;SDS011;63463;53.586;9.928;2024-03-08T06:18:39;116.23;;;12.90;;
5612;SDS011;63463;53.586;9.928;2024-03-08T06:21:06;115.37;;;12.80;;
5612;SDS011;63463;53.586;9.928;2024-03-08T06:23:33;115.93;;;12.57;;
5612;SDS011;63463;53.586;9.928;2024-03-08T06:25:59;115.60;;;13.27;;
5612;SDS011;63463;53.586;9.928;2024-03-08T06:28:25;115.40;;;13.40;;
5612;SDS011;63463;53.586;9.928;2024-03-08T06:30:51;116.47;;;13.20;;
5612;SDS011;63463;53.586;9.928;2024-03-08T06:33:19;115.63;;;12.13;;
5612;SDS011;63463;53.586;9.928;2024-03-08T06:35:45;117.83;;;15.00;;
5612;SDS011;63463;53.586;9.928;2024-03-08T06:38:11;116.77;;;12.80;;
5612;SDS011;63463;53.586;9.928;2024-03-08T06:40:37;116.87;;;14.00;;
5612;SDS011;63463;53.586;9.928;2024-03-08T06:43:03;128.03;;;16.53;;
5612;SDS011;63463;53.586;9.928;2024-03-08T06:45:31;121.87;;;16.23;;
5612;SDS011;63463;53.586;9.928;2024-03-08T06:47:57;119.03;;;13.90;;
5612;SDS011;63463;53.586;9.928;2024-03-08T06:50:22;118.20;;;13.77;;
5612;SDS011;63463;53.586;9.928;2024-03-08T06:52:48;118.50;;;14.03;;
5612;SDS011;63463;53.586;9.928;2024-03-08T06:55:18;118.10;;;14.07;;
5612;SDS011;63463;53.586;9.928;2024-03-08T06:57:44;118.50;;;13.37;;
5612;SDS011;63463;53.586;9.928;2024-03-08T07:00:10;120.07;;;14.57;;
5612;SDS011;63463;53.586;9.928;2024-03-08T07:02:38;119.17;;;13.90;;
5612;SDS011;63463;53.586;9.928;2024-03-08T07:05:08;119.90;;;14.13;;
5612;SDS011;63463;53.586;9.928;2024-03-08T07:07:35;119.67;;;14.10;;
5612;SDS011;63463;53.586;9.928;2024-03-08T07:10:01;126.70;;;15.10;;
5612;SDS011;63463;53.586;9.928;2024-03-08T07:12:27;126.10;;;14.73;;
5612;SDS011;63463;53.586;9.928;2024-03-08T07:14:53;128.87;;;15.67;;
5612;SDS011;63463;53.586;9.928;2024-03-08T07:17:19;120.37;;;14.07;;
5612;SDS011;63463;53.586;9.928;2024-03-08T07:19:46;121.30;;;14.27;;
5612;SDS011;63463;53.586;9.928;2024-03-08T07:22:12;122.40;;;15.53;;
5612;SDS011;63463;53.586;9.928;2024-03-08T07:24:38;121.87;;;15.10;;
5612;SDS011;63463;53.586;9.928;2024-03-08T07:27:23;121.80;;;15.03;;
5612;SDS011;63463;53.586;9.928;2024-03-08T07:29:49;122.10;;;15.00;;
5612;SDS011;63463;53.586;9.928;2024-03-08T07:32:15;122.67;;;14.13;;
5612;SDS011;63463;53.586;9.928;2024-03-08T07:34:47;122.77;;;14.83;;
5612;SDS011;63463;53.586;9.928;2024-03-08T07:37:15;123.17;;;14.70;;
5612;SDS011;63463;53.586;9.928;2024-03-08T07:39:41;124.13;;;15.10;;
5612;SDS011;63463;53.586;9.928;2024-03-08T07:42:08;123.00;;;14.80;;
5612;SDS011;63463;53.586;9.928;2024-03-08T07:44:36;125.90;;;16.20;;
5612;SDS011;63463;53.586;9.928;2024-03-08T07:47:03;124.10;;;14.90;;
5612;SDS011;63463;53.586;9.928;2024-03-08T07:49:30;127.40;;;16.70;;
5612;SDS011;63463;53.586;9.928;2024-03-08T07:51:56;126.87;;;16.03;;
5612;SDS011;63463;53.586;9.928;2024-03-08T07:54:23;124.33;;;15.30;;
5612;SDS011;63463;53.586;9.928;2024-03-08T07:56:50;125.37;;;14.73;;
5612;SDS011;63463;53.586;9.928;2024-03-08T07:59:17;122.73;;;14.07;;
5612;SDS011;63463;53.586;9.928;2024-03-08T08:01:43;122.73;;;14.23;;
5612;SDS011;63463;53.586;9.928;2024-03-08T08:04:09;129.07;;;15.70;;
5612;SDS011;63463;53.586;9.928;2024-03-08T08:06:38;125.20;;;15.20;;
5612;SDS011;63463;53.586;9.928;2024-03-08T08:09:09;124.47;;;15.07;;
5612;SDS011;63463;53.586;9.928;2024-03-08T08:11:53;124.87;;;15.03;;
5612;SDS011;63463;53.586;9.928;2024-03-08T08:14:19;125.47;;;15.57;;
5612;SDS011;63463;53.586;9.928;2024-03-08T08:16:46;129.10;;;16.53;;
5612;SDS011;63463;53.586;9.928;2024-03-08T08:19:13;128.63;;;16.10;;
5612;SDS011;63463;53.586;9.928;2024-03-08T08:21:39;128.63;;;15.63;;
5612;SDS011;63463;53.586;9.928;2024-03-08T08:24:05;127.90;;;16.03;;
5612;SDS011;63463;53.586;9.928;2024-03-08T08:26:31;127.47;;;15.73;;
5612;SDS011;63463;53.586;9.928;2024-03-08T08:28:59;128.97;;;16.40;;
5612;SDS011;63463;53.586;9.928;2024-03-08T08:31:25;128.67;;;16.10;;
5612;SDS011;63463;53.586;9.928;2024-03-08T08:33:52;128.00;;;14.93;;
5612;SDS011;63463;53.586;9.928;2024-03-08T08:36:25;135.90;;;16.77;;
5612;SDS011;63463;53.586;9.928;2024-03-08T08:38:52;128.60;;;16.10;;
5612;SDS011;63463;53.586;9.928;2024-03-08T08:41:23;128.43;;;14.80;;
5612;SDS011;63463;53.586;9.928;2024-03-08T08:43:49;128.83;;;15.43;;
5612;SDS011;63463;53.586;9.928;2024-03-08T08:46:18;127.37;;;13.70;;
5612;SDS011;63463;53.586;9.928;2024-03-08T08:48:45;130.17;;;14.57;;
5612;SDS011;63463;53.586;9.928;2024-03-08T08:51:11;129.67;;;14.70;;
5612;SDS011;63463;53.586;9.928;2024-03-08T08:53:38;127.97;;;13.57;;
5612;SDS011;63463;53.586;9.928;2024-03-08T08:56:07;126.77;;;12.80;;
5612;SDS011;63463;53.586;9.928;2024-03-08T08:58:33;126.00;;;12.00;;
5612;SDS011;63463;53.586;9.928;2024-03-08T09:00:59;127.80;;;12.57;;
5612;SDS011;63463;53.586;9.928;2024-03-08T09:03:26;127.40;;;10.70;;
5612;SDS011;63463;53.586;9.928;2024-03-08T09:05:57;125.67;;;11.30;;
5612;SDS011;63463;53.586;9.928;2024-03-08T09:08:23;126.70;;;11.37;;
5612;SDS011;63463;53.586;9.928;2024-03-08T09:10:49;126.57;;;11.20;;
5612;SDS011;63463;53.586;9.928;2024-03-08T09:13:16;132.50;;;13.03;;
5612;SDS011;63463;53.586;9.928;2024-03-08T09:15:43;128.07;;;12.00;;
5612;SDS011;63463;53.586;9.928;2024-03-08T09:18:09;128.27;;;10.83;;
5612;SDS011;63463;53.586;9.928;2024-03-08T09:20:35;129.30;;;11.63;;
5612;SDS011;63463;53.586;9.928;2024-03-08T09:23:02;129.97;;;11.20;;
5612;SDS011;63463;53.586;9.928;2024-03-08T09:25:29;129.63;;;10.83;;
5612;SDS011;63463;53.586;9.928;2024-03-08T09:27:56;132.00;;;11.30;;
5612;SDS011;63463;53.586;9.928;2024-03-08T09:30:25;132.33;;;11.33;;
5612;SDS011;63463;53.586;9.928;2024-03-08T09:32:51;136.10;;;11.90;;
5612;SDS011;63463;53.586;9.928;2024-03-08T09:35:18;136.17;;;11.80;;
5612;SDS011;63463;53.586;9.928;2024-03-08T09:37:44;130.20;;;10.00;;
5612;SDS011;63463;53.586;9.928;2024-03-08T09:40:12;131.27;;;9.97;;
5612;SDS011;63463;53.586;9.928;2024-03-08T09:42:40;131.00;;;10.80;;
5612;SDS011;63463;53.586;9.928;2024-03-08T09:45:08;130.77;;;9.77;;
5612;SDS011;63463;53.586;9.928;2024-03-08T09:47:44;132.70;;;10.60;;
5612;SDS011;63463;53.586;9.928;2024-03-08T09:50:10;129.43;;;10.30;;
5612;SDS011;63463;53.586;9.928;2024-03-08T09:52:41;131.13;;;11.27;;
5612;SDS011;63463;53.586;9.928;2024-03-08T09:55:09;132.13;;;9.80;;
5612;SDS011;63463;53.586;9.928;2024-03-08T09:57:55;127.90;;;9.67;;
5612;SDS011;63463;53.586;9.928;2024-03-08T10:00:42;135.27;;;10.47;;
5612;SDS011;63463;53.586;9.928;2024-03-08T10:03:08;130.10;;;10.70;;
5612;SDS011;63463;53.586;9.928;2024-03-08T10:05:34;126.07;;;8.97;;
5612;SDS011;63463;53.586;9.928;2024-03-08T10:08:00;126.37;;;9.60;;
5612;SDS011;63463;53.586;9.928;2024-03-08T10:10:26;127.90;;;9.97;;
5612;SDS011;63463;53.586;9.928;2024-03-08T10:12:53;125.37;;;9.03;;
5612;SDS011;63463;53.586;9.928;2024-03-08T10:15:20;125.33;;;8.90;;
5612;SDS011;63463;53.586;9.928;2024-03-08T10:17:46;129.57;;;9.53;;
5612;SDS011;63463;53.586;9.928;2024-03-08T10:20:14;125.70;;;8.90;;
5612;SDS011;63463;53.586;9.928;2024-03-08T10:22:41;128.40;;;11.30;;
5612;SDS011;63463;53.586;9.928;2024-03-08T10:25:10;126.13;;;9.63;;
5612;SDS011;63463;53.586;9.928;2024-03-08T10:27:44;125.27;;;8.97;;
5612;SDS011;63463;53.586;9.928;2024-03-08T10:30:10;126.00;;;9.40;;
5612;SDS011;63463;53.586;9.928;2024-03-08T10:32:38;124.90;;;9.07;;
5612;SDS011;63463;53.586;9.928;2024-03-08T10:35:06;127.40;;;9.73;;
5612;SDS011;63463;53.586;9.928;2024-03-08T10:37:37;127.77;;;10.17;;
5612;SDS011;63463;53.586;9.928;2024-03-08T10:40:08;128.07;;;9.40;;
5612;SDS011;63463;53.586;9.928;2024-03-08T10:45:38;127.07;;;9.37;;
5612;SDS011;63463;53.586;9.928;2024-03-08T10:50:47;130.20;;;10.00;;
5612;SDS011;63463;53.586;9.928;2024-03-08T10:53:15;130.30;;;9.47;;
5612;SDS011;63463;53.586;9.928;2024-03-08T10:55:43;128.77;;;9.23;;
5612;SDS011;63463;53.586;9.928;2024-03-08T10:58:09;126.87;;;8.77;;
5612;SDS011;63463;53.586;9.928;2024-03-08T11:00:36;127.77;;;9.20;;
5612;SDS011;63463;53.586;9.928;2024-03-08T11:03:03;130.30;;;10.17;;
5612;SDS011;63463;53.586;9.928;2024-03-08T11:08:00;133.40;;;11.20;;
5612;SDS011;63463;53.586;9.928;2024-03-08T11:10:26;128.50;;;9.57;;
5612;SDS011;63463;53.586;9.928;2024-03-08T11:12:52;129.47;;;9.30;;
5612;SDS011;63463;53.586;9.928;2024-03-08T11:15:18;129.10;;;9.03;;
5612;SDS011;63463;53.586;9.928;2024-03-08T11:17:44;130.27;;;9.30;;
5612;SDS011;63463;53.586;9.928;2024-03-08T11:20:17;129.13;;;8.60;;
5612;SDS011;63463;53.586;9.928;2024-03-08T11:23:00;129.53;;;9.17;;
5612;SDS011;63463;53.586;9.928;2024-03-08T11:25:30;128.87;;;8.70;;
5612;SDS011;63463;53.586;9.928;2024-03-08T11:28:13;128.10;;;8.90;;
5612;SDS011;63463;53.586;9.928;2024-03-08T11:30:42;127.27;;;9.10;;
5612;SDS011;63463;53.586;9.928;2024-03-08T11:33:12;124.00;;;8.63;;
5612;SDS011;63463;53.586;9.928;2024-03-08T11:35:38;119.70;;;7.80;;
5612;SDS011;63463;53.586;9.928;2024-03-08T11:38:07;118.37;;;7.93;;
5612;SDS011;63463;53.586;9.928;2024-03-08T11:40:33;119.17;;;8.63;;
5612;SDS011;63463;53.586;9.928;2024-03-08T11:43:00;116.50;;;7.03;;
5612;SDS011;63463;53.586;9.928;2024-03-08T11:45:29;117.23;;;7.30;;
5612;SDS011;63463;53.586;9.928;2024-03-08T11:47:54;115.80;;;7.53;;
5612;SDS011;63463;53.586;9.928;2024-03-08T11:50:21;116.87;;;7.50;;
5612;SDS011;63463;53.586;9.928;2024-03-08T11:52:50;118.47;;;8.47;;
5612;SDS011;63463;53.586;9.928;2024-03-08T11:55:16;123.20;;;8.80;;
5612;SDS011;63463;53.586;9.928;2024-03-08T11:57:44;117.10;;;7.77;;
5612;SDS011;63463;53.586;9.928;2024-03-08T12:00:16;115.37;;;7.00;;
5612;SDS011;63463;53.586;9.928;2024-03-08T12:05:56;115.67;;;7.23;;
5612;SDS011;63463;53.586;9.928;2024-03-08T12:08:24;115.77;;;7.90;;
5612;SDS011;63463;53.586;9.928;2024-03-08T12:10:56;116.17;;;7.80;;
5612;SDS011;63463;53.586;9.928;2024-03-08T12:13:30;115.07;;;7.03;;
5612;SDS011;63463;53.586;9.928;2024-03-08T12:16:03;116.40;;;7.77;;
5612;SDS011;63463;53.586;9.928;2024-03-08T12:18:33;114.17;;;6.90;;
5612;SDS011;63463;53.586;9.928;2024-03-08T12:21:06;117.87;;;7.17;;
5612;SDS011;63463;53.586;9.928;2024-03-08T12:23:33;113.60;;;6.77;;
5612;SDS011;63463;53.586;9.928;2024-03-08T12:26:09;117.70;;;7.47;;
5612;SDS011;63463;53.586;9.928;2024-03-08T12:28:38;113.17;;;6.83;;
5612;SDS011;63463;53.586;9.928;2024-03-08T12:31:06;111.97;;;6.13;;
5612;SDS011;63463;53.586;9.928;2024-03-08T12:33:35;112.67;;;6.70;;
5612;SDS011;63463;53.586;9.928;2024-03-08T12:36:02;110.20;;;6.20;;
5612;SDS011;63463;53.586;9.928;2024-03-08T12:38:32;111.40;;;6.80;;
5612;SDS011;63463;53.586;9.928;2024-03-08T12:41:00;110.07;;;6.07;;
5612;SDS011;63463;53.586;9.928;2024-03-08T12:43:27;113.10;;;6.30;;
5612;SDS011;63463;53.586;9.928;2024-03-08T12:45:55;114.57;;;6.90;;
5612;SDS011;63463;53.586;9.928;2024-03-08T12:48:21;115.40;;;7.50;;
5612;SDS011;63463;53.586;9.928;2024-03-08T12:50:47;112.30;;;7.00;;
5612;SDS011;63463;53.586;9.928;2024-03-08T12:53:13;113.57;;;7.10;;
5612;SDS011;63463;53.586;9.928;2024-03-08T12:55:39;116.47;;;7.57;;
5612;SDS011;63463;53.586;9.928;2024-03-08T12:58:06;117.73;;;7.70;;
5612;SDS011;63463;53.586;9.928;2024-03-08T13:00:33;112.93;;;7.30;;
5612;SDS011;63463;53.586;9.928;2024-03-08T13:03:01;115.37;;;7.87;;
5612;SDS011;63463;53.586;9.928;2024-03-08T13:05:27;121.43;;;7.67;;
5612;SDS011;63463;53.586;9.928;2024-03-08T13:07:53;118.23;;;8.40;;
5612;SDS011;63463;53.586;9.928;2024-03-08T13:13:23;117.87;;;8.40;;
5612;SDS011;63463;53.586;9.928;2024-03-08T13:15:49;117.47;;;8.07;;
5612;SDS011;63463;53.586;9.928;2024-03-08T13:18:16;118.03;;;8.07;;
5612;SDS011;63463;53.586;9.928;2024-03-08T13:20:42;121.90;;;10.20;;
5612;SDS011;63463;53.586;9.928;2024-03-08T13:23:14;119.67;;;8.57;;
5612;SDS011;63463;53.586;9.928;2024-03-08T13:25:40;118.13;;;7.77;;
5612;SDS011;63463;53.586;9.928;2024-03-08T13:28:06;118.47;;;7.80;;
5612;SDS011;63463;53.586;9.928;2024-03-08T13:30:35;120.30;;;8.17;;
5612;SDS011;63463;53.586;9.928;2024-03-08T13:33:01;120.10;;;8.57;;
5612;SDS011;63463;53.586;9.928;2024-03-08T13:35:29;119.23;;;7.70;;
5612;SDS011;63463;53.586;9.928;2024-03-08T13:37:55;120.37;;;9.10;;
5612;SDS011;63463;53.586;9.928;2024-03-08T13:40:21;123.23;;;8.50;;
5612;SDS011;63463;53.586;9.928;2024-03-08T13:42:48;118.50;;;8.20;;
5612;SDS011;63463;53.586;9.928;2024-03-08T13:45:14;119.37;;;8.20;;
5612;SDS011;63463;53.586;9.928;2024-03-08T13:47:42;121.07;;;9.23;;
5612;SDS011;63463;53.586;9.928;2024-03-08T13:50:09;118.27;;;7.93;;
5612;SDS011;63463;53.586;9.928;2024-03-08T13:52:41;118.77;;;8.20;;
5612;SDS011;63463;53.586;9.928;2024-03-08T13:55:09;119.13;;;8.03;;
5612;SDS011;63463;53.586;9.928;2024-03-08T13:57:35;119.47;;;8.23;;
5612;SDS011;63463;53.586;9.928;2024-03-08T14:00:01;118.23;;;8.00;;
5612;SDS011;63463;53.586;9.928;2024-03-08T14:02:28;118.57;;;8.53;;
5612;SDS011;63463;53.586;9.928;2024-03-08T14:04:55;117.77;;;7.87;;
5612;SDS011;63463;53.586;9.928;2024-03-08T14:07:21;123.20;;;8.03;;
5612;SDS011;63463;53.586;9.928;2024-03-08T14:09:48;119.93;;;8.30;;
5612;SDS011;63463;53.586;9.928;2024-03-08T14:12:14;122.27;;;9.33;;
5612;SDS011;63463;53.586;9.928;2024-03-08T14:14:40;119.60;;;8.23;;
5612;SDS011;63463;53.586;9.928;2024-03-08T14:17:09;119.10;;;8.17;;
5612;SDS011;63463;53.586;9.928;2024-03-08T14:19:41;119.83;;;8.33;;
5612;SDS011;63463;53.586;9.928;2024-03-08T14:22:07;119.57;;;8.33;;
5612;SDS011;63463;53.586;9.928;2024-03-08T14:24:35;119.03;;;8.13;;
5612;SDS011;63463;53.586;9.928;2024-03-08T14:27:01;119.67;;;9.07;;
5612;SDS011;63463;53.586;9.928;2024-03-08T14:29:28;118.73;;;8.17;;
5612;SDS011;63463;53.586;9.928;2024-03-08T14:31:57;118.00;;;8.20;;
5612;SDS011;63463;53.586;9.928;2024-03-08T14:34:24;118.70;;;8.13;;
5612;SDS011;63463;53.586;9.928;2024-03-08T14:36:52;120.90;;;7.70;;
5612;SDS011;63463;53.586;9.928;2024-03-08T14:39:18;119.87;;;8.40;;
5612;SDS011;63463;53.586;9.928;2024-03-08T14:41:50;117.97;;;7.70;;
5612;SDS011;63463;53.586;9.928;2024-03-08T14:44:18;120.57;;;8.20;;